Time;durP1;ratioP1;P1;durP2;ratioP2;P2;SDS_P1;SDS_P2;PMS_P1;PMS_P2;Temp;Humidity;BMP_temperature;BMP_pressure;BME280_temperature;BME280_humidity;BME280_pressure;Samples;Min_cycle;Max_cycle;Signal;HPM_P1;HPM_P2
2022/06/17 00:00:55;;;;;;;1.77;1.10;;;;;;;16.99;56.03;100912.28;6220268;23;20419;-71
2022/06/17 00:03:22;;;;;;;3.35;1.35;;;;;;;16.98;56.16;100910.63;6219749;23;20415;-72
2022/06/17 00:05:49;;;;;;;3.03;1.13;;;;;;;16.98;56.51;100910.63;6221941;23;20380;-72
2022/06/17 00:08:46;;;;;;;2.33;1.52;;;;;;;16.92;56.45;100907.94;6221397;23;20091;-70
2022/06/17 00:11:19;;;;;;;3.17;1.60;;;;;;;16.84;56.04;100894.75;6196895;23;20047;-72
2022/06/17 00:13:45;;;;;;;2.08;1.45;;;;;;;16.79;56.34;100886.53;6246985;23;20000;-72
2022/06/17 00:16:12;;;;;;;3.42;1.60;;;;;;;16.78;56.26;100884.91;6221137;23;20450;-72
2022/06/17 00:18:38;;;;;;;3.72;1.70;;;;;;;16.83;56.35;100893.09;6197300;23;20091;-71
2022/06/17 00:21:03;;;;;;;4.20;2.05;;;;;;;16.82;56.52;100891.47;6245684;23;20008;-70
2022/06/17 00:23:29;;;;;;;1.73;1.30;;;;;;;16.77;56.06;100883.25;6248392;23;20058;-70
2022/06/17 00:25:55;;;;;;;3.10;1.60;;;;;;;16.74;55.70;100889.38;6247633;23;20011;-71
2022/06/17 00:28:23;;;;;;;3.47;1.80;;;;;;;16.68;55.81;100891.38;6219995;23;20475;-72
2022/06/17 00:30:50;;;;;;;2.00;1.67;;;;;;;16.61;56.04;100884.56;6248834;23;20019;-71
2022/06/17 00:33:17;;;;;;;2.95;1.60;;;;;;;16.55;55.80;100881.88;6246866;23;20015;-70
2022/06/17 00:35:52;;;;;;;4.57;1.42;;;;;;;16.52;55.99;100893.50;6221546;23;20423;-72
2022/06/17 00:38:35;;;;;;;1.90;1.30;;;;;;;16.44;55.68;100885.91;6246170;23;20000;-71
2022/06/17 00:41:12;;;;;;;5.03;1.83;;;;;;;16.45;55.19;100901.31;6221531;23;20393;-73
2022/06/17 00:43:40;;;;;;;2.67;1.27;;;;;;;16.41;54.69;100903.00;6219328;23;20065;-72
2022/06/17 00:46:20;;;;;;;4.45;1.63;;;;;;;16.35;54.34;100904.19;6220342;23;20004;-72
2022/06/17 00:52:26;;;;;;;6.38;1.52;;;;;;;16.28;54.24;100898.19;6247872;23;20039;-70
2022/06/17 00:55:52;;;;;;;;;;;;;;;;;;;;;
2022/06/17 00:58:43;;;;;;;1.83;1.33;;;;;;;16.09;54.35;100890.69;6241391;23;20079;-72
2022/06/17 01:01:53;;;;;;;;;;;;;;;;;;;;;
2022/06/17 01:04:42;;;;;;;3.40;1.40;;;;;;;16.01;54.55;100899.59;6250050;23;20115;-72
2022/06/17 01:07:36;;;;;;;;;;;;;;;;;;;;;
2022/06/17 01:10:46;;;;;;;2.75;1.50;;;;;;;15.84;54.68;100887.06;6250561;23;20495;-74
2022/06/17 01:13:17;;;;;;;;;;;;;;;;;;;;;
2022/06/17 01:15:58;;;;;;;1.40;0.95;;;;;;;15.86;54.48;100893.09;6247293;23;20481;-74
2022/06/17 01:18:56;;;;;;;1.65;1.00;;;;;;;15.85;54.48;100896.97;6218623;23;20016;-71
2022/06/17 01:21:49;;;;;;;1.90;1.20;;;;;;;15.84;54.42;100889.84;6247025;23;20300;-71
2022/06/17 01:24:15;;;;;;;1.55;0.90;;;;;;;15.81;54.36;100876.63;6248393;23;20008;-72
2022/06/17 01:31:08;;;;;;;3.60;1.13;;;;;;;15.90;54.54;100889.78;6135728;23;20011;-72
2022/06/17 01:33:47;;;;;;;2.72;1.17;;;;;;;15.88;54.75;100874.31;6103860;23;20070;-73
2022/06/17 01:36:33;;;;;;;;;;;;;;;;;;;;;
2022/06/17 01:39:17;;;;;;;1.40;0.85;;;;;;;15.96;54.86;100880.31;6129804;23;20085;-71
2022/06/17 01:41:52;;;;;;;1.65;1.13;;;;;;;15.91;54.25;100883.16;6118736;23;20014;-70
2022/06/17 01:44:33;;;;;;;1.48;1.20;;;;;;;15.80;54.55;100866.69;6198839;23;20038;-73
2022/06/17 01:47:34;;;;;;;1.17;0.95;;;;;;;15.74;54.39;100862.31;6225859;23;20020;-71
2022/06/17 01:50:31;;;;;;;;;;;;;;;;;;;;;
2022/06/17 01:57:02;;;;;;;3.42;1.40;;;;;;;15.48;54.62;100846.00;6251079;23;20000;-71
2022/06/17 02:00:09;;;;;;;1.33;1.10;;;;;;;15.58;54.38;100869.06;6218782;23;20034;-72
2022/06/17 02:06:46;;;;;;;;;;;;;;;;;;;;;
2022/06/17 02:09:37;;;;;;;3.08;1.50;;;;;;;15.26;55.51;100867.66;6250154;23;20079;-70
2022/06/17 02:12:11;;;;;;;2.50;1.48;;;;;;;15.23;55.96;100868.25;6248463;23;20000;-70
2022/06/17 02:15:20;;;;;;;2.42;1.20;;;;;;;15.15;56.13;100867.72;6221147;23;20024;-74
2022/06/17 02:17:52;;;;;;;1.88;1.20;;;;;;;15.06;55.88;100852.13;6217174;22;20020;-70
2022/06/17 02:23:56;;;;;;;4.82;1.30;;;;;;;15.00;55.99;100852.13;6202299;23;20028;-71
2022/06/17 02:27:03;;;;;;;4.28;1.40;;;;;;;14.99;56.23;100871.72;6213296;23;20008;-71
2022/06/17 02:29:40;;;;;;;2.70;1.67;;;;;;;14.85;56.21;100852.25;6214976;23;20082;-73
2022/06/17 02:32:19;;;;;;;3.38;1.88;;;;;;;14.80;57.10;100861.34;6217261;23;20038;-73
2022/06/17 02:35:23;;;;;;;5.32;2.25;;;;;;;14.75;56.99;100863.31;6192456;23;20009;-72
2022/06/17 02:37:51;;;;;;;2.50;1.88;;;;;;;14.78;58.15;100880.09;6218963;23;20001;-73
2022/06/17 02:40:40;;;;;;;2.40;1.50;;;;;;;14.69;57.37;100870.78;6217234;23;20004;-73
2022/06/17 02:43:19;;;;;;;5.32;1.63;;;;;;;14.56;57.84;100854.81;6216471;23;20583;-72
2022/06/17 02:46:11;;;;;;;3.40;1.60;;;;;;;14.54;57.80;100857.03;6216728;23;20000;-72
2022/06/17 02:48:52;;;;;;;1.92;1.50;;;;;;;14.49;58.08;100855.16;6191012;23;20032;-72
2022/06/17 02:51:29;;;;;;;3.55;1.70;;;;;;;14.47;59.20;100858.19;6215550;23;20482;-72
2022/06/17 02:54:02;;;;;;;2.38;1.48;;;;;;;14.33;58.29;100840.63;6216093;23;20004;-72
2022/06/17 02:56:38;;;;;;;4.93;1.50;;;;;;;14.40;59.09;100846.66;6216550;23;20083;-72
2022/06/17 02:59:43;;;;;;;;;;;;;;;;;;;;;
2022/06/17 03:02:40;;;;;;;1.65;1.35;;;;;;;14.26;58.87;100823.59;6218675;23;21931;-71
2022/06/17 03:05:46;;;;;;;2.03;1.30;;;;;;;14.35;58.44;100843.91;6208265;23;20045;-71
2022/06/17 03:08:40;;;;;;;2.45;1.35;;;;;;;14.30;58.48;100835.69;6219511;23;20008;-74
2022/06/17 03:11:17;;;;;;;;;;;;;;;;;;;;;
2022/06/17 03:16:59;;;;;;;4.72;1.40;;;;;;;14.30;60.18;100874.22;6218742;22;20093;-72
2022/06/17 03:19:38;;;;;;;3.17;1.38;;;;;;;14.13;59.98;100845.09;6216590;23;20008;-74
2022/06/17 03:22:17;;;;;;;4.75;1.60;;;;;;;14.21;60.56;100873.16;6247054;23;20011;-74
2022/06/17 03:25:05;;;;;;;;;;;;;;;;;;;;;
2022/06/17 03:27:33;;;;;;;3.67;1.88;;;;;;;14.12;61.31;100862.69;6248192;23;20064;-71
2022/06/17 03:30:01;;;;;;;5.18;1.67;;;;;;;13.96;61.36;100837.16;6220392;23;20338;-71
2022/06/17 03:32:40;;;;;;;1.85;1.23;;;;;;;14.06;61.20;100858.31;6220479;23;20011;-71
2022/06/17 03:35:14;;;;;;;3.25;1.20;;;;;;;13.89;61.53;100835.81;6217243;23;20035;-72
2022/06/17 03:37:50;;;;;;;;;;;;;;;14.08;60.81;100869.03;6223516;23;20000;-71
2022/06/17 03:40:25;;;;;;;1.85;1.33;;;;;;;14.11;60.90;100871.22;6220684;23;19903;-71
2022/06/17 03:43:01;;;;;;;2.00;1.30;;;;;;;14.12;61.37;100868.19;6247820;23;20000;-71
2022/06/17 03:45:32;;;;;;;1.35;1.20;;;;;;;14.03;61.36;100856.13;6246448;23;19996;-71
2022/06/17 03:48:59;;;;;;;;;;;;;;;;;;;;;
2022/06/17 03:51:18;;;;;;;1.60;1.23;;;;;;;13.93;61.49;100836.88;6234910;23;20008;-72
2022/06/17 03:53:48;;;;;;;1.58;1.20;;;;;;;14.09;61.76;100859.66;6222068;23;20054;-71
2022/06/17 03:56:23;;;;;;;1.50;1.40;;;;;;;14.01;61.94;100844.56;6248111;23;20008;-73
2022/06/17 03:58:50;;;;;;;1.95;1.55;;;;;;;14.01;61.85;100844.56;6219990;23;20146;-72
2022/06/17 04:01:19;;;;;;;2.28;1.50;;;;;;;14.10;62.09;100848.41;6244173;23;20008;-73
2022/06/17 04:04:34;;;;;;;2.42;1.60;;;;;;;14.10;62.31;100853.88;6246565;23;20012;-72
2022/06/17 04:07:10;;;;;;;;;;;;;;;;;;;;;
2022/06/17 04:09:42;;;;;;;3.10;2.08;;;;;;;14.20;62.93;100857.72;6245793;23;20079;-71
2022/06/17 04:12:23;;;;;;;4.13;2.00;;;;;;;14.19;62.26;100858.84;6218975;23;20320;-72
2022/06/17 04:15:17;;;;;;;;;;;;;;;;;;;;;
2022/06/17 04:28:54;;;;;;;2.67;2.10;;;;;;;13.98;63.70;100850.63;6095497;23;20014;-72
2022/06/17 04:32:16;;;;;;;;;;;;;;;;;;;;;
2022/06/17 04:34:46;;;;;;;3.47;1.60;;;;;;;14.16;64.21;100879.47;6153481;23;20080;-73
2022/06/17 04:37:33;;;;;;;2.03;1.70;;;;;;;14.24;63.88;100886.34;6154393;23;20012;-70
2022/06/17 04:41:09;;;;;;;2.53;1.83;;;;;;;14.31;63.80;100882.19;6152226;23;20024;-74
2022/06/17 04:50:22;;;;;;;3.28;2.20;;;;;;;14.47;63.88;100879.34;6023440;23;20101;-72
2022/06/17 04:59:50;;;;;;;7.13;3.55;;;;;;;14.67;64.07;100845.44;5982705;24;20066;-74
2022/06/17 05:09:42;;;;;;;3.38;2.35;;;;;;;15.07;63.70;100886.78;6105724;23;20434;-73
2022/06/17 05:12:53;;;;;;;;;;;;;;;;;;;;;
2022/06/17 05:16:12;;;;;;;;;;;;;;;;;;;;;
2022/06/17 05:37:02;;;;;;;5.70;3.53;;;;;;;15.41;64.28;100906.13;6031064;23;20124;-74
2022/06/17 05:43:49;;;;;;;4.60;2.92;;;;;;;15.43;63.69;100890.13;6047185;23;20088;-73
2022/06/17 05:47:38;;;;;;;;;;;;;;;;;;;;;
2022/06/17 05:50:19;;;;;;;3.92;2.55;;;;;;;15.82;63.63;100897.56;6015344;23;20082;-72
2022/06/17 06:00:37;;;;;;;;;;;;;;;;;;;;;
2022/06/17 06:10:15;;;;;;;4.15;2.50;;;;;;;16.91;60.54;100864.06;5897807;24;20060;-74
2022/06/17 06:13:03;;;;;;;12.23;3.50;;;;;;;16.94;59.70;100868.97;6008934;23;20038;-74
2022/06/17 06:15:47;;;;;;;9.65;3.25;;;;;;;16.95;59.86;100861.50;6008161;23;20302;-73
2022/06/17 06:18:23;;;;;;;6.15;2.78;;;;;;;16.84;59.59;100845.03;6025766;23;20019;-73
2022/06/17 06:21:41;;;;;;;;;;;;;;;;;;;;;
2022/06/17 06:24:41;;;;;;;3.35;2.70;;;;;;;17.00;57.66;100853.97;6007790;23;20004;-72
2022/06/17 06:27:29;;;;;;;7.07;3.55;;;;;;;17.02;57.39;100848.13;5980495;23;20008;-71
2022/06/17 06:30:25;;;;;;;3.00;2.38;;;;;;;17.16;56.21;100846.28;6027148;23;20009;-73
2022/06/17 06:36:18;;;;;;;4.93;2.53;;;;;;;17.48;55.04;100830.00;6009039;23;19982;-74
2022/06/17 06:50:49;;;;;;;4.50;2.05;;;;;;;18.38;51.33;100800.06;5870207;24;20017;-73
2022/06/17 06:53:20;;;;;;;6.88;2.03;;;;;;;18.69;49.62;100809.66;5790242;24;20060;-72
2022/06/17 06:56:05;;;;;;;;;;;;;;;;;;;;;
2022/06/17 07:02:23;;;;;;;4.70;1.70;;;;;;;19.52;47.92;100804.63;5743513;24;20070;-74
2022/06/17 07:05:01;;;;;;;;;;;;;;;;;;;;;
2022/06/17 07:07:32;;;;;;;5.47;1.90;;;;;;;19.79;47.16;100799.25;6049199;23;20089;-74
2022/06/17 07:14:23;;;;;;;8.27;2.00;;;;;;;20.01;46.03;100781.69;6082763;23;20024;-72
2022/06/17 07:17:17;;;;;;;4.10;2.08;;;;;;;20.18;46.13;100803.13;6069832;23;20114;-72
2022/06/17 07:19:55;;;;;;;3.97;1.63;;;;;;;20.24;45.94;100793.53;6160799;22;20074;-71
2022/06/17 07:23:16;;;;;;;5.10;1.83;;;;;;;20.46;46.38;100805.66;6218272;23;20012;-73
2022/06/17 07:25:44;;;;;;;2.70;1.65;;;;;;;20.68;45.78;100808.34;6246703;23;20011;-70
2022/06/17 07:28:14;;;;;;;3.28;1.90;;;;;;;20.82;45.45;100796.25;6219128;23;20015;-73
2022/06/17 07:31:40;;;;;;;;;;;;;;;;;;;;;
2022/06/17 07:35:37;;;;;;;;;;;;;;;;;;;;;
2022/06/17 08:04:12;;;;;;;5.45;1.95;;;;;;;21.35;46.29;100781.16;5846408;24;20018;-74
2022/06/17 08:06:40;;;;;;;3.60;2.13;;;;;;;21.61;46.43;100813.69;5872202;23;20048;-71
2022/06/17 08:09:11;;;;;;;6.57;2.20;;;;;;;21.77;46.25;100823.16;6042239;23;20007;-71
2022/06/17 08:11:36;;;;;;;4.90;2.08;;;;;;;22.00;45.83;100839.59;6064013;23;20040;-72
2022/06/17 08:31:51;;;;;;;6.78;2.13;;;;;;;23.36;43.68;100832.16;6069249;23;20033;-73
2022/06/17 08:34:21;;;;;;;5.38;1.90;;;;;;;23.56;43.76;100819.31;6184171;23;20052;-70
2022/06/17 08:37:28;;;;;;;3.67;1.80;;;;;;;23.91;43.07;100818.16;6186323;23;20005;-73
2022/06/17 08:40:00;;;;;;;4.60;1.75;;;;;;;23.99;43.41;100808.84;6125434;23;19994;-69
2022/06/17 08:42:54;;;;;;;3.72;2.10;;;;;;;24.10;43.26;100798.84;6184432;23;20000;-73
2022/06/17 08:48:20;;;;;;;3.17;1.90;;;;;;;24.22;43.77;100807.22;6175961;23;20001;-70
2022/06/17 08:51:23;;;;;;;6.22;2.20;;;;;;;24.44;42.92;100807.88;6183927;23;20024;-70
2022/06/17 08:57:43;;;;;;;4.85;1.60;;;;;;;24.72;42.87;100808.00;6174270;23;20009;-69
2022/06/17 09:00:32;;;;;;;3.58;1.75;;;;;;;24.74;41.77;100804.84;6185908;23;20458;-73
2022/06/17 09:03:19;;;;;;;3.28;1.58;;;;;;;24.64;43.14;100799.75;6183279;23;20385;-72
2022/06/17 09:06:45;;;;;;;9.60;2.13;;;;;;;24.58;43.36;100779.56;6185783;23;20013;-73
2022/06/17 09:09:39;;;;;;;;;;;;;;;24.91;42.96;100798.13;6099525;23;20089;-73
2022/06/17 09:12:29;;;;;;;5.35;1.92;;;;;;;25.04;43.22;100796.94;6105798;23;19908;-72
2022/06/17 09:15:29;;;;;;;4.68;1.80;;;;;;;25.13;42.97;100794.00;6186044;23;20012;-70
2022/06/17 09:18:39;;;;;;;4.25;1.58;;;;;;;25.33;43.00;100766.97;6184030;23;20005;-71
2022/06/17 09:21:19;;;;;;;;;;;;;;;;;;;;;
2022/06/17 09:24:40;;;;;;;3.08;1.75;;;;;;;25.57;42.42;100777.22;6188957;23;20075;-75
2022/06/17 09:34:48;;;;;;;6.57;1.88;;;;;;;26.21;41.06;100782.00;6122748;23;20024;-74
2022/06/17 09:48:04;;;;;;;2.88;1.70;;;;;;;26.76;40.18;100768.84;6006939;23;20071;-72
2022/06/17 09:51:17;;;;;;;3.92;1.83;;;;;;;27.07;39.43;100747.44;5929919;24;20009;-74
2022/06/17 09:57:42;;;;;;;;;;;;;;;;;;;;;
2022/06/17 10:01:31;;;;;;;4.50;1.67;;;;;;;27.87;38.74;100761.69;5817083;24;20081;-74
2022/06/17 10:05:20;;;;;;;;;;;;;;;;;;;;;
2022/06/17 10:08:39;;;;;;;;;;;;;;;;;;;;;
2022/06/17 10:11:53;;;;;;;5.93;3.33;;;;;;;28.87;36.96;100755.94;5800853;24;20089;-71
2022/06/17 10:14:54;;;;;;;;;;;;;;;;;;;;;
2022/06/17 10:31:20;;;;;;;4.00;1.70;;;;;;;39.71;21.65;100783.06;6172781;23;20009;-73
2022/06/17 10:33:48;;;;;;;3.20;1.75;;;;;;;40.38;19.91;100766.84;6224596;22;20012;-75
2022/06/17 10:36:40;;;;;;;4.53;1.58;;;;;;;41.06;19.93;100774.94;6219367;23;20442;-69
2022/06/17 10:43:40;;;;;;;3.65;1.52;;;;;;;41.38;19.26;100738.44;6160440;23;20041;-79
2022/06/17 10:49:47;;;;;;;4.43;1.98;;;;;;;42.21;17.73;100769.38;6163910;23;20136;-73
2022/06/17 10:53:24;;;;;;;13.20;2.03;;;;;;;41.09;18.53;100762.53;6183303;23;20032;-73
2022/06/17 10:55:54;;;;;;;3.75;1.83;;;;;;;41.26;18.87;100742.22;6129503;23;20060;-73
2022/06/17 11:01:56;;;;;;;2.75;1.58;;;;;;;37.17;22.50;100722.03;6071893;23;20073;-74
2022/06/17 11:04:31;;;;;;;2.53;1.45;;;;;;;35.33;24.73;100726.81;6106907;23;20004;-74
2022/06/17 11:07:39;;;;;;;5.40;1.70;;;;;;;33.90;26.46;100726.09;6161878;23;20011;-74
2022/06/17 11:10:13;;;;;;;5.05;1.98;;;;;;;36.35;24.11;100733.19;6183675;23;20060;-73
2022/06/17 11:16:48;;;;;;;4.35;1.33;;;;;;;39.07;20.87;100729.53;6157663;23;20017;-72
2022/06/17 11:19:36;;;;;;;6.70;1.50;;;;;;;39.88;19.72;100742.84;6157683;23;20001;-74
2022/06/17 11:22:19;;;;;;;4.03;1.42;;;;;;;40.32;19.06;100740.06;6136331;23;20012;-74
2022/06/17 11:32:29;;;;;;;;;;;;;;;;;;;;;
2022/06/17 11:35:37;;;;;;;2.40;1.30;;;;;;;40.98;17.29;100716.31;6152812;23;20092;-73
2022/06/17 11:41:45;;;;;;;;;;;;;;;;;;;;;
2022/06/17 11:44:20;;;;;;;3.65;1.25;;;;;;;42.36;16.68;100706.31;6155863;23;20077;-76
2022/06/17 11:47:57;;;;;;;;;;;;;;;;;;;;;
2022/06/17 11:51:14;;;;;;;5.15;2.05;;;;;;;44.83;14.49;100739.47;6161082;23;20036;-74
2022/06/17 13:33:12;;;;;;;;;;;;;;;;;;;;;
2022/06/17 14:01:26;;;;;;;10.90;2.25;;;;;;;46.99;12.79;100668.50;6246605;23;20400;-76
2022/06/17 14:03:57;;;;;;;9.07;2.22;;;;;;;46.69;12.70;100655.16;6247660;23;20008;-74
2022/06/17 14:10:28;;;;;;;11.48;1.90;;;;;;;47.08;12.54;100661.72;6214395;23;20019;-74
2022/06/17 14:37:34;;;;;;;5.90;2.10;;;;;;;46.48;13.33;100639.19;6065853;23;20117;-73
2022/06/17 14:44:34;;;;;;;10.93;2.47;;;;;;;46.56;12.93;100617.16;6065325;23;20473;-74
2022/06/17 14:47:28;;;;;;;;;;;;;;;;;;;;;
2022/06/17 15:14:17;;;;;;;12.40;1.38;;;;;;;46.39;12.90;100642.28;6037006;23;20008;-74
2022/06/17 15:39:31;;;;;;;;;;;;;;;;;;;;;
2022/06/17 15:45:53;;;;;;;4.30;1.67;;;;;;;44.87;14.96;100650.66;6071321;23;20147;-75
2022/06/17 15:49:29;;;;;;;8.55;2.67;;;;;;;44.08;15.87;100644.34;6068389;23;20015;-76
2022/06/17 15:52:04;;;;;;;7.57;1.90;;;;;;;43.95;15.96;100618.69;6118716;23;20012;-75
2022/06/17 15:55:09;;;;;;;;;;;;;;;;;;;;;
2022/06/17 15:58:32;;;;;;;6.32;1.92;;;;;;;44.38;15.68;100645.16;6157787;23;20040;-72
2022/06/17 16:18:30;;;;;;;6.97;1.60;;;;;;;43.55;16.58;100637.28;6080071;23;20068;-74
2022/06/17 17:25:20;;;;;;;4.40;1.73;;;;;;;36.42;25.54;100601.25;6241390;22;20030;-73
2022/06/17 17:27:46;;;;;;;9.85;2.15;;;;;;;36.10;26.21;100628.34;6246927;23;20042;-76
2022/06/17 17:30:48;;;;;;;;;;;;;;;;;;;;;
2022/06/17 17:54:03;;;;;;;18.50;1.90;;;;;;;33.34;31.30;100609.16;6206784;22;20013;-72
2022/06/17 17:56:33;;;;;;;4.60;1.52;;;;;;;32.92;31.97;100586.41;6197797;23;20027;-72
2022/06/17 18:04:01;;;;;;;10.88;1.73;;;;;;;32.36;32.38;100609.78;6100500;23;20025;-75
2022/06/17 18:25:45;;;;;;;;;;;;;;;;;;;;;
2022/06/17 18:35:32;;;;;;;5.97;1.98;;;;;;;28.56;41.19;100582.72;6246723;23;20063;-75
2022/06/17 18:44:35;;;;;;;8.52;2.63;;;;;;;28.02;43.23;100602.59;6251651;23;20094;-76
2022/06/17 18:47:04;;;;;;;5.75;2.08;;;;;;;27.92;43.91;100606.03;6201005;23;20576;-74
2022/06/17 18:49:30;;;;;;;14.73;2.10;;;;;;;27.85;44.80;100623.59;6251234;23;20064;-75
2022/06/17 18:55:33;;;;;;;4.38;1.70;;;;;;;27.54;44.92;100630.38;6230543;23;20016;-73
2022/06/17 18:58:01;;;;;;;10.60;2.47;;;;;;;27.12;45.38;100592.75;6222582;23;19996;-74
2022/06/17 19:00:28;;;;;;;11.07;2.90;;;;;;;27.08;46.20;100616.34;6250154;23;20079;-73
2022/06/17 19:06:36;;;;;;;;;;;;;;;;;;;;;
2022/06/17 19:18:21;;;;;;;7.82;2.03;;;;;;;26.01;49.20;100611.03;6245623;23;20019;-73
2022/06/17 19:20:50;;;;;;;7.43;2.75;;;;;;;25.85;50.30;100611.06;6221680;23;20335;-76
2022/06/17 19:23:23;;;;;;;8.82;2.42;;;;;;;25.69;50.24;100607.50;6193154;23;20016;-77
2022/06/17 19:25:52;;;;;;;10.88;2.35;;;;;;;25.51;50.71;100605.09;6217645;23;20020;-72
2022/06/17 19:29:01;;;;;;;11.38;3.40;;;;;;;25.50;51.02;100620.25;6191984;23;20009;-73
2022/06/17 19:34:59;;;;;;;7.57;2.08;;;;;;;25.20;52.64;100620.72;6216682;23;20036;-74
2022/06/17 19:37:46;;;;;;;4.60;2.15;;;;;;;25.05;53.06;100615.91;6192827;23;20783;-74
2022/06/17 19:44:22;;;;;;;10.27;2.50;;;;;;;24.73;54.02;100616.66;6153572;23;20069;-73
2022/06/17 19:50:22;;;;;;;8.10;2.03;;;;;;;24.37;54.33;100609.25;6154324;23;20063;-75
2022/06/17 20:24:03;;;;;;;8.15;3.10;;;;;;;23.31;61.72;100634.31;6211536;23;20028;-73
2022/06/17 20:27:25;;;;;;;;;;;;;;;;;;;;;
2022/06/17 20:31:06;;;;;;;;;;;;;;;;;;;;;
2022/06/17 20:34:05;;;;;;;7.47;3.00;;;;;;;22.76;63.46;100655.88;6097243;23;20018;-73
2022/06/17 20:40:34;;;;;;;10.02;3.58;;;;;;;22.29;65.00;100648.59;6096161;23;20011;-74
2022/06/17 20:50:35;;;;;;;9.88;3.88;;;;;;;21.99;65.81;100687.63;6095645;23;20101;-73
2022/06/17 20:53:52;;;;;;;;;;;;;;;;;;;;;
2022/06/17 21:27:00;;;;;;;3.65;2.50;;;;;;;20.22;70.44;100695.84;6226349;22;20116;-73
2022/06/17 21:29:28;;;;;;;5.70;2.70;;;;;;;20.10;70.23;100690.94;6222728;23;20020;-73
2022/06/17 21:32:20;;;;;;;4.40;2.75;;;;;;;20.04;69.92;100687.50;6248069;23;20075;-73
2022/06/17 21:35:01;;;;;;;7.00;3.08;;;;;;;19.97;70.68;100678.81;6223427;23;20031;-72
2022/06/17 21:37:30;;;;;;;4.13;2.40;;;;;;;19.90;70.30;100670.16;6225146;23;20481;-75
2022/06/17 21:49:40;;;;;;;10.98;4.03;;;;;;;19.82;71.47;100682.06;6204294;22;20020;-73
2022/06/17 21:52:35;;;;;;;;;;;;;;;;;;;;;
